Time;durP1;ratioP1;P1;durP2;ratioP2;P2;SDS_P1;SDS_P2;PMS_P1;PMS_P2;Temp;Humidity;BMP_temperature;BMP_pressure;BME280_temperature;BME280_humidity;BME280_pressure;Samples;Min_cycle;Max_cycle;Signal;HPM_P1;HPM_P2
2022/06/28 00:00:46;;;;;;;30.60;23.90;;;18.10;99.90;;;;;;5076750;28;20117;-92
2022/06/28 00:06:34;;;;;;;29.63;20.73;;;18.00;99.90;;;;;;5077154;28;20023;-94
2022/06/28 00:12:28;;;;;;;22.20;19.13;;;18.00;99.90;;;;;;5076984;28;20044;-93
2022/06/28 00:21:01;;;;;;;26.27;20.20;;;18.00;99.90;;;;;;5076790;28;20090;-93
2022/06/28 00:26:49;;;;;;;21.23;18.27;;;18.10;99.90;;;;;;5076404;28;20028;-93
2022/06/28 00:29:59;;;;;;;20.13;17.77;;;18.10;99.90;;;;;;5076646;28;20376;-93
2022/06/28 00:32:26;;;;;;;24.90;21.58;;;18.10;99.90;;;;;;5076512;28;20021;-92
2022/06/28 00:34:51;;;;;;;23.95;21.10;;;18.10;99.90;;;;;;5075034;28;20536;-93
2022/06/28 00:47:12;;;;;;;34.67;26.08;;;18.20;99.90;;;;;;5033986;28;20456;-92
2022/06/28 00:53:01;;;;;;;36.88;26.80;;;18.10;99.90;;;;;;5034051;28;20366;-92
2022/06/28 00:58:50;;;;;;;27.63;23.20;;;18.00;99.90;;;;;;5034103;28;20028;-93
2022/06/28 01:04:37;;;;;;;20.38;18.20;;;17.90;99.90;;;;;;5033886;28;20024;-93
2022/06/28 01:07:35;;;;;;;19.63;17.52;;;17.90;99.90;;;;;;5033659;28;20474;-91
2022/06/28 01:13:23;;;;;;;23.73;19.73;;;17.90;99.90;;;;;;5033447;28;20539;-91
2022/06/28 01:19:10;;;;;;;27.90;21.65;;;17.90;99.90;;;;;;5075647;28;20027;-92
2022/06/28 01:24:58;;;;;;;24.48;21.27;;;17.70;99.90;;;;;;5075408;28;20024;-93
2022/06/28 01:30:48;;;;;;;30.58;23.00;;;17.60;99.90;;;;;;5075048;28;20070;-92
2022/06/28 01:36:35;;;;;;;26.77;21.08;;;17.30;99.90;;;;;;5075156;28;20102;-92
2022/06/28 01:42:23;;;;;;;26.85;22.08;;;17.20;99.90;;;;;;5075058;28;20507;-92
2022/06/28 01:44:54;;;;;;;31.42;21.90;;;17.20;99.90;;;;;;5074737;28;20025;-92
2022/06/28 01:47:22;;;;;;;28.65;21.75;;;17.20;99.90;;;;;;5074468;28;20469;-90
2022/06/28 01:49:49;;;;;;;27.00;21.85;;;17.10;99.90;;;;;;5074271;28;20033;-90
2022/06/28 01:58:59;;;;;;;24.73;21.65;;;17.10;99.90;;;;;;5074758;28;20074;-91
2022/06/28 02:04:46;;;;;;;37.40;26.42;;;17.10;99.90;;;;;;5074432;28;20488;-92
2022/06/28 02:07:31;;;;;;;30.58;24.15;;;17.10;99.90;;;;;;5074381;28;20028;-90
2022/06/28 02:10:03;;;;;;;28.17;22.50;;;17.10;99.90;;;;;;5072461;28;20423;-89
2022/06/28 02:12:29;;;;;;;49.97;34.60;;;17.10;99.90;;;;;;5052628;28;20111;-90
2022/06/28 02:14:57;;;;;;;43.80;29.38;;;17.10;99.90;;;;;;5061034;28;20446;-90
2022/06/28 02:17:23;;;;;;;44.10;29.77;;;17.10;99.90;;;;;;5056433;28;20020;-90
2022/06/28 02:19:48;;;;;;;36.10;25.25;;;17.10;99.90;;;;;;5072594;28;20025;-90
2022/06/28 02:22:43;;;;;;;41.85;28.80;;;17.10;99.90;;;;;;5073562;28;20109;-90
2022/06/28 02:25:08;;;;;;;42.35;31.98;;;17.20;99.90;;;;;;5072429;28;20090;-90
2022/06/28 02:30:56;;;;;;;36.58;27.50;;;17.20;99.90;;;;;;5073862;28;20047;-91
2022/06/28 02:34:03;;;;;;;40.55;28.98;;;17.20;99.90;;;;;;5073666;28;20064;-91
2022/06/28 02:42:35;;;;;;;37.50;28.85;;;17.10;99.90;;;;;;5073959;28;20032;-90
2022/06/28 02:45:01;;;;;;;32.20;25.27;;;17.10;99.90;;;;;;5062997;28;20453;-91
2022/06/28 02:47:27;;;;;;;41.03;28.77;;;17.10;99.90;;;;;;5072312;28;20111;-91
2022/06/28 02:50:34;;;;;;;36.78;26.27;;;17.10;99.90;;;;;;5072457;28;20422;-92
2022/06/28 02:53:00;;;;;;;34.03;23.92;;;17.10;99.90;;;;;;5073535;28;20025;-92
2022/06/28 02:55:26;;;;;;;20.83;16.48;;;17.10;99.90;;;;;;5073444;28;20104;-90
2022/06/28 02:57:58;;;;;;;19.83;11.75;;;17.10;99.90;;;;;;5073091;28;20032;-90
2022/06/28 03:00:24;;;;;;;15.15;9.95;;;17.00;99.90;;;;;;5072760;28;20036;-90
2022/06/28 03:02:50;;;;;;;11.32;9.85;;;16.90;99.90;;;;;;5072754;28;20020;-90
2022/06/28 03:05:31;;;;;;;10.65;8.75;;;16.80;99.90;;;;;;5072656;28;20028;-90
2022/06/28 03:07:57;;;;;;;10.00;8.65;;;16.70;99.90;;;;;;5072934;28;20029;-90
2022/06/28 03:10:23;;;;;;;14.10;9.23;;;16.70;99.90;;;;;;5070697;28;20414;-91
2022/06/28 03:12:49;;;;;;;10.45;8.90;;;16.60;99.90;;;;;;5072950;28;20028;-91
2022/06/28 03:15:15;;;;;;;7.70;6.90;;;16.50;99.90;;;;;;5072553;28;20029;-90
2022/06/28 03:18:29;;;;;;;10.05;8.57;;;16.50;99.90;;;;;;5072599;28;20055;-90
2022/06/28 03:20:55;;;;;;;7.70;6.65;;;16.40;99.90;;;;;;5072701;28;20491;-90
2022/06/28 03:23:20;;;;;;;8.00;6.32;;;16.50;99.90;;;;;;5072841;28;20029;-90
2022/06/28 03:26:25;;;;;;;6.97;5.22;;;16.50;99.90;;;;;;5071412;28;20017;-90
2022/06/28 03:28:50;;;;;;;7.15;5.55;;;16.50;99.90;;;;;;5072696;28;20531;-90
2022/06/28 03:31:23;;;;;;;5.40;4.90;;;16.50;99.90;;;;;;5070692;28;20021;-90
2022/06/28 03:33:49;;;;;;;5.47;4.80;;;16.50;99.90;;;;;;5051188;28;20496;-90
2022/06/28 03:36:33;;;;;;;5.75;4.50;;;16.50;99.90;;;;;;5060688;28;20099;-91
2022/06/28 03:38:58;;;;;;;6.40;4.95;;;16.50;99.90;;;;;;5070367;28;20368;-91
2022/06/28 03:41:25;;;;;;;6.22;4.63;;;16.40;99.90;;;;;;5071964;28;20031;-90
2022/06/28 03:43:51;;;;;;;6.57;5.65;;;16.40;99.90;;;;;;5072471;28;20381;-90
2022/06/28 03:46:17;;;;;;;7.50;6.63;;;16.30;99.90;;;;;;5071866;28;20021;-90
2022/06/28 03:48:53;;;;;;;7.30;6.15;;;16.30;99.90;;;;;;5071171;28;20546;-90
2022/06/28 03:51:18;;;;;;;;;;;16.20;99.90;;;;;;5062170;28;20415;-90
2022/06/28 03:54:00;;;;;;;6.30;5.70;;;16.10;99.90;;;;;;5072250;28;19950;-90
2022/06/28 03:56:26;;;;;;;10.10;6.53;;;16.00;99.90;;;;;;5072055;28;20024;-90
2022/06/28 03:59:14;;;;;;;15.93;6.22;;;15.90;99.90;;;;;;5072189;28;20031;-90
2022/06/28 04:01:40;;;;;;;8.82;6.45;;;15.90;99.90;;;;;;5058484;28;20021;-89
2022/06/28 04:04:32;;;;;;;5.97;5.15;;;15.80;99.90;;;;;;5071508;28;20034;-89
2022/06/28 04:06:58;;;;;;;7.68;6.25;;;15.70;99.90;;;;;;5053469;28;20365;-89
2022/06/28 04:09:23;;;;;;;8.52;5.65;;;15.70;99.90;;;;;;5071090;28;20036;-89
2022/06/28 04:11:49;;;;;;;8.10;5.35;;;15.60;99.90;;;;;;5052354;28;20040;-91
2022/06/28 04:14:17;;;;;;;5.93;5.00;;;15.60;99.90;;;;;;5072024;28;20028;-91
2022/06/28 04:16:42;;;;;;;5.78;4.93;;;15.60;99.90;;;;;;5075309;28;20035;-91
2022/06/28 04:19:09;;;;;;;9.48;4.70;;;15.50;99.90;;;;;;5074354;28;20368;-91
2022/06/28 04:21:39;;;;;;;4.90;4.35;;;15.50;99.90;;;;;;5074021;28;20021;-91
2022/06/28 04:24:05;;;;;;;4.80;4.32;;;15.50;99.90;;;;;;5075436;28;20111;-91
2022/06/28 04:26:43;;;;;;;5.85;4.63;;;15.50;99.90;;;;;;5074265;28;20035;-91
2022/06/28 04:29:09;;;;;;;5.13;4.63;;;15.50;99.90;;;;;;5075307;28;20028;-91
2022/06/28 04:31:34;;;;;;;5.65;4.70;;;15.50;99.90;;;;;;5075485;28;20046;-91
2022/06/28 04:34:38;;;;;;;9.15;4.88;;;15.50;99.90;;;;;;5074520;28;20434;-90
2022/06/28 04:37:04;;;;;;;5.15;4.75;;;15.50;99.90;;;;;;5075584;28;20093;-91
2022/06/28 04:39:42;;;;;;;6.30;5.15;;;15.50;99.90;;;;;;5074570;28;20021;-91
2022/06/28 04:42:07;;;;;;;7.03;5.63;;;15.50;99.90;;;;;;5074189;28;20077;-92
2022/06/28 04:44:43;;;;;;;9.52;5.55;;;15.60;99.90;;;;;;5071151;28;20020;-91
2022/06/28 04:47:09;;;;;;;13.25;5.47;;;15.60;99.90;;;;;;5072772;28;20036;-90
2022/06/28 04:49:41;;;;;;;6.90;5.10;;;15.60;99.90;;;;;;5074338;28;20029;-90
2022/06/28 04:52:07;;;;;;;7.15;6.43;;;15.70;99.90;;;;;;5075260;28;20385;-92
2022/06/28 04:54:32;;;;;;;6.57;5.65;;;15.70;99.90;;;;;;5073723;28;20558;-90
2022/06/28 04:57:13;;;;;;;12.82;5.95;;;15.80;99.90;;;;;;5075006;28;20052;-90
2022/06/28 04:59:39;;;;;;;9.68;7.20;;;15.80;99.90;;;;;;5074708;28;20020;-92
2022/06/28 05:02:13;;;;;;;7.97;7.15;;;15.90;99.90;;;;;;5074777;28;20368;-90
2022/06/28 05:04:38;;;;;;;12.20;7.53;;;16.00;99.90;;;;;;5074763;28;20036;-90
2022/06/28 05:07:11;;;;;;;8.48;5.93;;;16.00;99.90;;;;;;5074758;28;20099;-90
2022/06/28 05:09:36;;;;;;;11.63;7.38;;;16.10;99.90;;;;;;5073974;28;20035;-93
2022/06/28 05:12:28;;;;;;;9.18;6.55;;;16.20;99.90;;;;;;5063859;28;20045;-92
2022/06/28 05:14:54;;;;;;;11.05;6.60;;;16.20;99.90;;;;;;5053562;28;20128;-91
2022/06/28 05:17:20;;;;;;;8.45;6.60;;;16.20;99.90;;;;;;5073523;28;20529;-92
2022/06/28 05:19:45;;;;;;;13.00;6.93;;;16.20;99.90;;;;;;5070792;28;20028;-92
2022/06/28 05:22:26;;;;;;;8.55;5.93;;;16.20;99.90;;;;;;5067995;28;20059;-91
2022/06/28 05:24:53;;;;;;;10.68;6.10;;;16.30;99.90;;;;;;5072795;28;20447;-91
2022/06/28 05:27:21;;;;;;;7.28;5.13;;;16.30;99.90;;;;;;5073584;28;20020;-90
2022/06/28 05:29:46;;;;;;;5.93;5.20;;;16.30;99.90;;;;;;5073119;28;20060;-91
2022/06/28 05:32:20;;;;;;;6.80;5.72;;;16.40;99.90;;;;;;5072987;28;20036;-90
2022/06/28 05:34:46;;;;;;;6.82;5.45;;;16.40;99.90;;;;;;5067993;28;20122;-90
2022/06/28 05:37:21;;;;;;;12.40;5.28;;;16.50;99.90;;;;;;5072930;28;20443;-89
2022/06/28 05:39:47;;;;;;;6.05;4.60;;;16.50;99.90;;;;;;5074284;28;20017;-90
2022/06/28 05:42:52;;;;;;;7.38;4.22;;;16.50;99.90;;;;;;5074290;28;20051;-90
2022/06/28 05:45:17;;;;;;;4.47;3.95;;;16.50;99.90;;;;;;5066796;28;20032;-90
2022/06/28 05:48:14;;;;;;;7.65;4.03;;;16.50;99.90;;;;;;5063145;28;20036;-90
2022/06/28 05:50:39;;;;;;;10.23;5.72;;;16.60;99.90;;;;;;5063519;28;20054;-91
2022/06/28 05:53:05;;;;;;;6.18;4.25;;;16.60;99.90;;;;;;5057713;28;20036;-91
2022/06/28 05:55:50;;;;;;;9.32;3.83;;;16.70;99.90;;;;;;5073631;28;20025;-90
2022/06/28 05:58:16;;;;;;;6.82;3.50;;;16.70;99.90;;;;;;5072615;28;20498;-90
2022/06/28 06:00:41;;;;;;;4.35;3.95;;;16.70;99.90;;;;;;5073244;28;20029;-90
2022/06/28 06:03:16;;;;;;;6.95;3.53;;;16.70;99.90;;;;;;5073051;28;20021;-90
2022/06/28 06:05:42;;;;;;;9.75;5.20;;;16.70;99.90;;;;;;5070474;28;20041;-90
2022/06/28 06:08:10;;;;;;;5.15;4.38;;;16.70;99.90;;;;;;5072093;28;20033;-91
2022/06/28 06:11:09;;;;;;;10.82;3.90;;;16.80;99.90;;;;;;5071498;28;20055;-90
2022/06/28 06:13:37;;;;;;;5.20;3.05;;;16.80;99.90;;;;;;5068136;28;20044;-90
2022/06/28 06:16:03;;;;;;;6.93;3.80;;;16.80;99.90;;;;;;5071628;28;20488;-90
2022/06/28 06:18:29;;;;;;;10.00;3.60;;;16.70;99.90;;;;;;5073236;28;20016;-90
2022/06/28 06:20:55;;;;;;;14.18;3.67;;;16.80;99.90;;;;;;5073002;28;20082;-90
2022/06/28 06:23:35;;;;;;;6.15;3.25;;;16.70;99.90;;;;;;5071953;28;20021;-90
2022/06/28 06:26:02;;;;;;;6.75;2.80;;;16.70;99.90;;;;;;5072968;28;20025;-90
2022/06/28 06:28:28;;;;;;;5.97;3.33;;;16.70;99.90;;;;;;5072202;28;20384;-90
2022/06/28 06:30:55;;;;;;;7.22;2.90;;;16.70;99.90;;;;;;5081820;28;20022;-90
2022/06/28 06:33:21;;;;;;;8.98;3.60;;;16.70;99.90;;;;;;5082729;28;20083;-90
2022/06/28 06:36:44;;;;;;;9.32;3.50;;;16.70;99.90;;;;;;5072958;28;20024;-90
2022/06/28 06:39:10;;;;;;;6.88;3.58;;;16.80;99.90;;;;;;5073155;28;20081;-90
2022/06/28 06:41:36;;;;;;;8.60;3.83;;;16.80;99.90;;;;;;5073004;28;20520;-90
2022/06/28 06:44:03;;;;;;;6.82;3.53;;;16.90;99.90;;;;;;5072809;28;20025;-90
2022/06/28 06:46:29;;;;;;;5.65;3.42;;;16.90;99.90;;;;;;5067119;28;20492;-89
2022/06/28 06:49:21;;;;;;;8.38;3.53;;;17.00;99.90;;;;;;5053905;28;20025;-90
2022/06/28 06:51:48;;;;;;;7.88;3.05;;;16.90;99.90;;;;;;5072881;28;20103;-90
2022/06/28 06:54:32;;;;;;;12.95;4.13;;;16.90;99.90;;;;;;5072859;28;20025;-90
2022/06/28 06:56:58;;;;;;;11.90;3.83;;;17.00;99.90;;;;;;5071670;28;20025;-90
2022/06/28 06:59:35;;;;;;;10.00;3.80;;;17.10;99.90;;;;;;5072314;28;20050;-89
2022/06/28 07:02:01;;;;;;;4.63;3.15;;;17.20;99.90;;;;;;5071644;28;20086;-89
2022/06/28 07:04:33;;;;;;;7.32;3.53;;;17.30;99.90;;;;;;5072254;28;20415;-89
2022/06/28 07:07:00;;;;;;;4.72;3.10;;;17.30;99.90;;;;;;5066079;28;20037;-89
2022/06/28 07:09:25;;;;;;;7.05;3.53;;;17.30;99.90;;;;;;5059966;28;20078;-88
2022/06/28 07:11:53;;;;;;;10.05;2.67;;;17.40;99.90;;;;;;5066964;28;20112;-88
2022/06/28 07:14:19;;;;;;;3.97;2.45;;;17.50;99.90;;;;;;5071008;28;20112;-89
2022/06/28 07:16:51;;;;;;;6.53;2.40;;;17.50;99.90;;;;;;5057758;28;20506;-89
2022/06/28 07:19:17;;;;;;;7.00;2.63;;;17.50;99.90;;;;;;5071601;28;20118;-89
2022/06/28 07:21:44;;;;;;;6.60;2.22;;;17.50;99.90;;;;;;5070311;28;20024;-89
2022/06/28 07:24:28;;;;;;;8.68;2.15;;;17.60;99.90;;;;;;5069853;28;20056;-89
2022/06/28 07:26:54;;;;;;;6.93;2.92;;;17.70;99.90;;;;;;5071020;28;20028;-88
2022/06/28 07:29:34;;;;;;;7.75;2.55;;;17.70;99.90;;;;;;5068778;28;20032;-89
2022/06/28 07:31:59;;;;;;;5.63;2.40;;;17.70;99.90;;;;;;5065780;28;20089;-88
2022/06/28 07:34:50;;;;;;;5.45;2.10;;;17.70;99.90;;;;;;5066501;28;20420;-88
2022/06/28 07:37:15;;;;;;;5.82;2.47;;;17.80;99.90;;;;;;5069056;28;20035;-89
2022/06/28 07:39:43;;;;;;;8.57;2.60;;;17.80;99.90;;;;;;5071866;28;20103;-89
2022/06/28 07:42:51;;;;;;;6.63;2.35;;;17.80;99.90;;;;;;5070544;28;20051;-88
2022/06/28 07:45:16;;;;;;;6.63;2.50;;;17.80;99.90;;;;;;5070363;28;20033;-89
2022/06/28 07:47:50;;;;;;;5.05;1.73;;;17.80;99.90;;;;;;5071467;28;20090;-89
2022/06/28 07:53:05;;;;;;;6.82;2.33;;;18.00;99.90;;;;;;5075211;28;20028;-89
2022/06/28 07:55:32;;;;;;;4.63;1.80;;;18.00;99.90;;;;;;5073845;28;20029;-88
2022/06/28 07:57:59;;;;;;;6.80;2.15;;;18.10;99.90;;;;;;5061226;28;20472;-91
2022/06/28 08:00:35;;;;;;;6.18;2.17;;;18.20;99.90;;;;;;5069304;28;20021;-89
2022/06/28 08:03:00;;;;;;;4.32;1.40;;;18.30;99.90;;;;;;5058808;28;20021;-91
2022/06/28 08:05:26;;;;;;;4.65;1.45;;;18.30;99.90;;;;;;5072290;28;20027;-89
2022/06/28 08:07:51;;;;;;;2.45;1.73;;;18.30;99.90;;;;;;5074645;28;20025;-89
2022/06/28 08:10:17;;;;;;;5.43;2.13;;;18.40;99.90;;;;;;5075780;28;20097;-89
2022/06/28 08:12:43;;;;;;;2.85;1.30;;;18.40;99.90;;;;;;5075082;28;20048;-88
2022/06/28 08:15:10;;;;;;;2.72;1.30;;;18.50;99.90;;;;;;5074869;28;20498;-89
2022/06/28 08:17:41;;;;;;;2.65;1.25;;;18.50;99.90;;;;;;5069887;28;20510;-88
2022/06/28 08:20:08;;;;;;;3.75;1.67;;;18.50;99.90;;;;;;5054498;28;20385;-88
2022/06/28 08:22:50;;;;;;;5.85;1.73;;;18.60;99.90;;;;;;5060050;28;20055;-88
2022/06/28 08:25:15;;;;;;;6.43;1.67;;;18.60;99.90;;;;;;5074723;28;20021;-88
2022/06/28 08:27:41;;;;;;;6.00;1.88;;;18.60;99.90;;;;;;5069279;28;20432;-88
2022/06/28 08:30:19;;;;;;;12.43;2.60;;;18.70;99.90;;;;;;5069125;28;20396;-87
2022/06/28 08:32:44;;;;;;;8.82;2.50;;;18.70;99.90;;;;;;5075242;28;20059;-87
2022/06/28 08:35:15;;;;;;;7.60;1.65;;;18.70;99.90;;;;;;5072743;28;20445;-88
2022/06/28 08:37:41;;;;;;;4.72;1.30;;;18.70;99.90;;;;;;5053954;28;20056;-88
2022/06/28 08:40:07;;;;;;;3.15;1.25;;;18.70;99.90;;;;;;5053957;28;20452;-88
2022/06/28 08:42:46;;;;;;;4.85;1.05;;;18.80;99.90;;;;;;5055210;28;20048;-89
2022/06/28 08:45:12;;;;;;;7.85;1.80;;;18.90;99.90;;;;;;5053429;28;20032;-89
2022/06/28 08:47:41;;;;;;;3.15;1.25;;;19.00;99.90;;;;;;5053818;28;20029;-88
2022/06/28 08:50:14;;;;;;;2.45;1.30;;;19.00;99.90;;;;;;5055015;28;20025;-87
2022/06/28 08:52:48;;;;;;;2.03;1.40;;;19.00;99.90;;;;;;5061535;28;20112;-88
2022/06/28 08:55:14;;;;;;;4.93;1.42;;;19.00;99.90;;;;;;5073822;28;20024;-90
2022/06/28 08:57:56;;;;;;;3.90;1.55;;;19.00;99.90;;;;;;5070418;28;20032;-90
2022/06/28 09:00:21;;;;;;;6.07;1.33;;;19.10;99.90;;;;;;5053276;28;20036;-91
2022/06/28 09:03:01;;;;;;;3.65;1.55;;;19.10;99.90;;;;;;5056402;28;20021;-89
2022/06/28 09:05:28;;;;;;;5.10;1.15;;;19.00;99.90;;;;;;5061808;28;20032;-90
2022/06/28 09:07:56;;;;;;;4.88;1.23;;;19.00;99.90;;;;;;5075168;28;20086;-87
2022/06/28 09:10:22;;;;;;;5.68;1.20;;;19.00;99.90;;;;;;5075185;28;20025;-91
2022/06/28 09:13:14;;;;;;;2.47;1.10;;;19.00;99.90;;;;;;5073890;28;20488;-89
2022/06/28 09:15:58;;;;;;;3.53;1.27;;;19.10;99.90;;;;;;5075164;28;20039;-90
2022/06/28 09:21:30;;;;;;;2.80;1.53;;;19.20;99.90;;;;;;5068791;28;20023;-88
2022/06/28 09:24:25;;;;;;;4.70;1.10;;;19.30;99.90;;;;;;5075093;28;20802;-90
2022/06/28 09:27:26;;;;;;;7.55;1.63;;;19.20;99.90;;;;;;5075267;28;20377;-89
2022/06/28 09:29:52;;;;;;;1.92;0.90;;;19.20;99.90;;;;;;5055155;28;20470;-89
2022/06/28 09:35:29;;;;;;;3.05;1.25;;;19.30;99.90;;;;;;5047111;28;20491;-89
2022/06/28 09:41:48;;;;;;;3.72;1.00;;;19.40;99.90;;;;;;5058500;28;20032;-89
2022/06/28 09:44:38;;;;;;;5.15;1.40;;;19.60;99.90;;;;;;5072768;28;20048;-90
2022/06/28 09:47:06;;;;;;;2.78;1.00;;;19.60;99.90;;;;;;5073712;28;20016;-90
2022/06/28 09:49:32;;;;;;;1.67;0.90;;;19.70;99.90;;;;;;5073230;28;20537;-89
2022/06/28 09:52:05;;;;;;;2.38;0.88;;;19.70;99.90;;;;;;5073937;28;20051;-88
2022/06/28 09:54:33;;;;;;;2.92;1.15;;;19.80;99.90;;;;;;5071617;28;20060;-86
2022/06/28 09:57:00;;;;;;;4.07;1.13;;;19.80;99.90;;;;;;5068986;28;20419;-86
2022/06/28 09:59:28;;;;;;;4.75;1.20;;;19.90;99.90;;;;;;5071072;28;20027;-86
2022/06/28 10:01:55;;;;;;;4.22;0.93;;;19.90;99.90;;;;;;5073622;28;20085;-85
2022/06/28 10:04:23;;;;;;;1.77;0.90;;;20.00;99.90;;;;;;5072915;28;20645;-86
2022/06/28 10:06:49;;;;;;;3.00;0.75;;;19.90;99.90;;;;;;5070990;28;20020;-86
2022/06/28 10:09:18;;;;;;;2.88;0.80;;;19.90;99.90;;;;;;5059404;28;20065;-86
2022/06/28 10:17:43;;;;;;;2.33;0.90;;;20.20;99.90;;;;;;5053505;28;20036;-87
2022/06/28 10:20:12;;;;;;;1.20;0.70;;;20.30;97.10;;;;;;5062184;28;20100;-86
2022/06/28 10:22:37;;;;;;;10.27;2.10;;;20.30;99.90;;;;;;5064722;28;20507;-87
2022/06/28 10:25:20;;;;;;;8.13;1.17;;;20.40;99.90;;;;;;5070842;28;20028;-88
2022/06/28 10:27:50;;;;;;;5.95;1.27;;;20.50;99.90;;;;;;5073588;28;20094;-88
2022/06/28 10:30:21;;;;;;;1.80;0.82;;;20.50;99.00;;;;;;5070302;28;20048;-87
2022/06/28 10:33:13;;;;;;;2.40;1.02;;;20.50;99.90;;;;;;5071989;28;20025;-87
2022/06/28 10:35:41;;;;;;;1.20;1.10;;;20.50;99.90;;;;;;5053616;28;20033;-88
2022/06/28 10:38:19;;;;;;;0.75;0.75;;;20.40;99.80;;;;;;5070300;28;20501;-87
2022/06/28 10:40:47;;;;;;;3.03;1.15;;;20.40;99.90;;;;;;5072572;28;20055;-89
2022/06/28 10:47:11;;;;;;;0.95;0.57;;;20.50;99.90;;;;;;5051758;28;20035;-89
2022/06/28 10:50:18;;;;;;;2.92;1.00;;;20.70;99.00;;;;;;5031831;28;20108;-88
2022/06/28 10:53:02;;;;;;;5.63;1.05;;;20.80;99.90;;;;;;5031686;28;20493;-89
2022/06/28 10:55:27;;;;;;;3.08;0.80;;;20.90;94.80;;;;;;5031143;28;20041;-86
2022/06/28 10:58:07;;;;;;;0.90;0.70;;;20.90;99.50;;;;;;5050361;28;20036;-87
2022/06/28 11:00:58;;;;;;;2.50;0.98;;;20.90;97.70;;;;;;5050496;28;20091;-87
2022/06/28 11:03:24;;;;;;;1.90;0.93;;;20.90;96.90;;;;;;5050760;28;20501;-87
2022/06/28 11:05:53;;;;;;;3.78;1.10;;;20.80;97.10;;;;;;5051229;28;20044;-88
2022/06/28 11:08:45;;;;;;;2.90;0.90;;;20.90;93.40;;;;;;5051168;28;20452;-88
2022/06/28 11:11:10;;;;;;;6.20;1.02;;;20.90;92.00;;;;;;5041577;28;20124;-87
2022/06/28 11:13:46;;;;;;;2.83;0.80;;;21.00;94.20;;;;;;5034887;28;20124;-87
2022/06/28 11:16:47;;;;;;;3.35;0.95;;;21.00;90.70;;;;;;5054539;28;20040;-87
2022/06/28 11:19:14;;;;;;;2.65;0.63;;;21.00;93.90;;;;;;5063047;28;20431;-87
2022/06/28 11:21:42;;;;;;;2.55;1.10;;;21.10;95.60;;;;;;5072098;28;20028;-87
2022/06/28 11:24:11;;;;;;;1.13;0.73;;;21.20;92.60;;;;;;5075298;28;20065;-86
2022/06/28 11:30:17;;;;;;;2.13;0.82;;;21.30;93.20;;;;;;5075007;28;20089;-86
2022/06/28 11:32:55;;;;;;;2.45;0.70;;;21.20;92.60;;;;;;5035164;28;20112;-87
2022/06/28 11:35:24;;;;;;;2.40;0.82;;;21.20;93.90;;;;;;5068055;28;20405;-87
2022/06/28 11:37:55;;;;;;;1.77;0.88;;;21.20;94.30;;;;;;5076635;28;20099;-87
2022/06/28 11:40:26;;;;;;;3.10;0.90;;;21.30;95.30;;;;;;5076413;28;20524;-88
2022/06/28 11:43:28;;;;;;;7.97;1.27;;;21.50;96.10;;;;;;5076845;28;20115;-87
2022/06/28 11:45:55;;;;;;;5.43;1.08;;;21.70;82.00;;;;;;5055744;28;20025;-87
2022/06/28 11:48:31;;;;;;;2.83;0.98;;;21.70;74.90;;;;;;5074651;28;20119;-87
2022/06/28 11:51:05;;;;;;;1.85;0.77;;;21.60;77.30;;;;;;5065639;28;20052;-87
2022/06/28 11:53:51;;;;;;;2.60;1.10;;;21.60;86.90;;;;;;5075499;28;20024;-88
2022/06/28 11:56:16;;;;;;;5.88;0.90;;;21.70;84.40;;;;;;5074437;28;20064;-88
2022/06/28 11:58:42;;;;;;;5.85;1.10;;;21.90;88.50;;;;;;5075202;28;20118;-86
2022/06/28 12:01:15;;;;;;;2.25;1.30;;;21.90;80.80;;;;;;5075991;28;20132;-87
2022/06/28 12:03:44;;;;;;;1.25;0.93;;;21.80;79.30;;;;;;5074561;28;20032;-86
2022/06/28 12:06:23;;;;;;;2.65;0.95;;;21.90;80.60;;;;;;5062456;28;20029;-89
2022/06/28 12:08:59;;;;;;;5.25;0.90;;;22.00;79.00;;;;;;5057385;28;20025;-89
2022/06/28 12:14:36;;;;;;;3.92;1.15;;;22.10;81.80;;;;;;5072331;28;20457;-91
2022/06/28 12:17:09;;;;;;;0.95;0.77;;;22.10;75.40;;;;;;5075377;28;20051;-90
2022/06/28 12:19:38;;;;;;;5.65;0.88;;;22.10;79.60;;;;;;5074260;28;20440;-88
2022/06/28 12:22:24;;;;;;;0.85;0.60;;;22.00;80.00;;;;;;5071506;28;20024;-87
2022/06/28 12:24:55;;;;;;;8.50;1.35;;;22.10;79.10;;;;;;5073139;28;20060;-88
2022/06/28 12:27:34;;;;;;;4.70;0.60;;;22.20;83.00;;;;;;5068944;28;20071;-88
2022/06/28 12:30:00;;;;;;;3.22;1.17;;;22.30;77.60;;;;;;5070704;28;20083;-89
2022/06/28 12:32:27;;;;;;;2.40;1.20;;;22.40;72.70;;;;;;5071571;28;20024;-88
2022/06/28 12:35:02;;;;;;;1.98;0.60;;;22.40;73.50;;;;;;5056953;28;20488;-88
2022/06/28 12:37:27;;;;;;;2.10;0.90;;;22.50;86.10;;;;;;5069801;28;20024;-89
2022/06/28 12:39:53;;;;;;;4.20;1.80;;;22.60;78.00;;;;;;5072155;28;20036;-87
2022/06/28 12:42:58;;;;;;;3.55;1.10;;;22.60;72.80;;;;;;5071139;28;20546;-88
2022/06/28 12:45:24;;;;;;;2.75;1.00;;;22.80;74.70;;;;;;5059225;28;20385;-87
2022/06/28 12:48:02;;;;;;;4.10;1.08;;;23.00;67.50;;;;;;5070258;28;20028;-88
2022/06/28 12:50:27;;;;;;;1.73;0.77;;;23.00;67.70;;;;;;5072504;28;20468;-88
2022/06/28 12:52:55;;;;;;;2.05;0.80;;;22.90;68.10;;;;;;5063212;28;20028;-88
2022/06/28 12:55:20;;;;;;;2.25;0.90;;;22.90;69.30;;;;;;5074488;28;20036;-90
2022/06/28 12:57:46;;;;;;;3.35;0.90;;;22.90;65.30;;;;;;5065829;28;20029;-88
2022/06/28 13:00:13;;;;;;;6.65;0.95;;;22.70;67.10;;;;;;5058941;28;20021;-88
2022/06/28 13:02:39;;;;;;;2.88;0.93;;;22.60;67.50;;;;;;5070378;28;20382;-88
2022/06/28 13:05:05;;;;;;;1.00;0.70;;;22.40;68.90;;;;;;5062655;28;20025;-87
2022/06/28 13:07:46;;;;;;;3.00;0.90;;;22.30;69.70;;;;;;5073237;28;20389;-88
2022/06/28 13:10:13;;;;;;;3.55;1.00;;;22.20;71.20;;;;;;5068244;28;20040;-89
2022/06/28 13:12:44;;;;;;;4.47;1.23;;;22.10;72.90;;;;;;5074615;28;20074;-90
2022/06/28 13:15:10;;;;;;;3.25;0.98;;;22.20;74.70;;;;;;5070875;28;20488;-86
2022/06/28 13:17:44;;;;;;;1.70;0.95;;;22.20;71.60;;;;;;5073075;28;20020;-86
2022/06/28 13:20:12;;;;;;;4.60;0.85;;;22.20;74.90;;;;;;5072154;28;20503;-87
2022/06/28 13:22:40;;;;;;;2.08;0.82;;;22.40;73.30;;;;;;5074336;28;20017;-87
2022/06/28 13:25:07;;;;;;;6.55;1.05;;;22.40;71.30;;;;;;5073771;28;20024;-87
2022/06/28 13:27:32;;;;;;;3.70;1.10;;;22.40;70.30;;;;;;5072215;28;20028;-87
2022/06/28 13:30:05;;;;;;;4.05;1.10;;;22.50;68.90;;;;;;5073401;28;20028;-87
2022/06/28 13:32:30;;;;;;;2.83;1.00;;;22.50;79.10;;;;;;5071278;28;20021;-87
2022/06/28 13:34:57;;;;;;;1.55;0.80;;;22.40;70.90;;;;;;5069277;28;20086;-86
2022/06/28 13:37:23;;;;;;;1.15;0.80;;;22.30;66.90;;;;;;5054001;28;20079;-86
2022/06/28 13:39:55;;;;;;;2.03;0.98;;;22.20;67.60;;;;;;5072563;28;20027;-86
2022/06/28 13:42:20;;;;;;;6.63;0.90;;;22.10;68.70;;;;;;5072691;28;20033;-87
2022/06/28 13:44:46;;;;;;;2.38;1.00;;;22.10;70.20;;;;;;5073645;28;20051;-87
2022/06/28 13:47:16;;;;;;;2.22;0.90;;;22.10;67.10;;;;;;5071460;28;20024;-87
2022/06/28 13:49:42;;;;;;;6.93;1.20;;;22.10;66.60;;;;;;5072962;28;20024;-87
2022/06/28 13:52:09;;;;;;;4.40;1.35;;;22.10;71.10;;;;;;5072465;28;20035;-85
2022/06/28 13:54:42;;;;;;;2.63;0.75;;;22.20;76.70;;;;;;5071832;28;20040;-86
2022/06/28 13:57:07;;;;;;;1.58;0.98;;;22.30;74.30;;;;;;5073736;28;20024;-85
2022/06/28 13:59:33;;;;;;;4.18;0.80;;;22.40;75.60;;;;;;5072420;28;20024;-86
2022/06/28 14:01:59;;;;;;;1.75;0.65;;;22.50;70.70;;;;;;5072393;28;20512;-86
2022/06/28 14:04:31;;;;;;;2.90;1.05;;;22.50;70.20;;;;;;5073310;28;20025;-85
2022/06/28 14:06:56;;;;;;;4.10;0.80;;;22.80;68.70;;;;;;5071933;28;20116;-85
2022/06/28 14:09:23;;;;;;;2.13;0.80;;;23.00;71.90;;;;;;5073409;28;20475;-86
2022/06/28 14:12:00;;;;;;;2.50;0.63;;;23.20;65.90;;;;;;5052147;28;20381;-87
2022/06/28 14:14:32;;;;;;;6.40;1.25;;;23.40;63.70;;;;;;5071045;28;20358;-86
2022/06/28 14:16:57;;;;;;;2.28;0.95;;;23.40;61.40;;;;;;5071773;28;20024;-86
2022/06/28 14:19:23;;;;;;;3.55;1.00;;;23.40;59.80;;;;;;5063695;28;20027;-85
2022/06/28 14:21:49;;;;;;;5.93;1.20;;;23.30;59.10;;;;;;5070164;28;20476;-85
2022/06/28 14:24:14;;;;;;;1.27;0.65;;;23.30;58.00;;;;;;5071768;28;20074;-85
2022/06/28 14:26:40;;;;;;;6.47;0.90;;;23.20;59.30;;;;;;5069687;28;20444;-85
2022/06/28 14:29:08;;;;;;;1.90;0.68;;;23.30;59.60;;;;;;5062186;28;20064;-85
2022/06/28 14:31:33;;;;;;;1.52;0.60;;;23.30;59.60;;;;;;5072130;28;20046;-85
2022/06/28 14:33:59;;;;;;;3.40;0.70;;;23.20;57.50;;;;;;5060527;28;20017;-85
2022/06/28 14:36:34;;;;;;;1.98;0.75;;;23.20;58.80;;;;;;5061577;28;20025;-86
2022/06/28 14:39:00;;;;;;;2.25;1.10;;;23.10;57.10;;;;;;5066590;28;20028;-84
2022/06/28 14:41:26;;;;;;;0.85;0.60;;;23.10;57.70;;;;;;5061397;28;20416;-87
2022/06/28 14:43:57;;;;;;;3.47;1.08;;;23.10;57.90;;;;;;5059339;28;20032;-88
2022/06/28 14:46:22;;;;;;;2.65;1.02;;;23.10;57.60;;;;;;5072612;28;20052;-88
2022/06/28 14:48:49;;;;;;;2.08;0.90;;;23.10;56.40;;;;;;5072718;28;20060;-88
2022/06/28 14:51:15;;;;;;;5.10;1.08;;;23.10;56.30;;;;;;5065542;28;20639;-88